PHWVO EHEH-EHEH

Flight info

Callsign PHWVO
Flight time 0h 1m
Altitude 1000
Route EHEH/03 TRAFFIC PATTERN
Aircraft C172/L-SFG/C

Departure

Time 2026-04-30 18:19
Airport Eindhoven Airport (EHEH)

Arrival

Time 2026-04-30 18:20
Airport Eindhoven Airport (EHEH)
Time Latitude Longitude Altitude Speed Heading
2026-04-30 18:18 51.45675 5.36326 754 ft 92 kts 190°
2026-04-30 18:19 51.45045 5.35855 682 ft 105 kts 195°
2026-04-30 18:19 51.44399 5.35322 570 ft 98 kts 198°
2026-04-30 18:19 51.43872 5.35185 469 ft 65 kts 132°
2026-04-30 18:19 51.43690 5.35768 333 ft 60 kts 90°
2026-04-30 18:20 51.43956 5.36264 161 ft 63 kts 42°
2026-04-30 18:20 51.44289 5.36637 86 ft 53 kts 39°
2026-04-30 18:20 51.44556 5.36935 79 ft 38 kts 38°
2026-04-30 18:20 51.44729 5.37075 78 ft 18 kts 327°
2026-04-30 18:21 51.44781 5.36997 78 ft 1 kts 314°
2026-04-30 18:21 51.44786 5.36989 78 ft 4 kts 316°
2026-04-30 18:21 51.44898 5.36923 78 ft 26 kts 347°
2026-04-30 18:21 51.45071 5.36874 78 ft 27 kts 349°
2026-04-30 18:22 51.45262 5.36812 78 ft 26 kts 347°
2026-04-30 18:22 51.45461 5.36939 78 ft 8 kts 46°
2026-04-30 18:22 51.45500 5.37045 78 ft 15 kts 64°
2026-04-30 18:23 51.45558 5.37229 78 ft 20 kts 60°
2026-04-30 18:23 51.45612 5.37397 78 ft 16 kts 62°
2026-04-30 18:23 51.45668 5.37556 78 ft 17 kts 52°
2026-04-30 18:23 51.45720 5.37674 78 ft 9 kts 54°
2026-04-30 18:24 51.45773 5.37759 78 ft 2 kts 60°
2026-04-30 18:24 51.45777 5.37769 78 ft 0 kts 55°